Airfield :







YOU CAN JOIN US ON...

 
LOGIN :

Register | Disclaimer

   EN    FR    IT 

 









Legend :    VFR   Marginal VFR   IFR   Intensive IFR   Very Intensive IFR
Visi :
Ceiling :
>= 8 km
>= 3000ft
5 to 8 km
1000 to 3000 ft
1500m to 5 km
500 to 1000 ft
800 to 1500m
200 to 500 ft
< 800m
< 200 ft
Symbols :   Thunderstorms  Fog  Heavy snow  Heavy precipitations  Wind > 20 kt







- Airport Elevation : 21 ft
- IATA code : YVM


CYVM - Qikiqtarjuac

CURRENT METAR :
  • 221300Z VRB02KT 15SM IC FEW019 SCT200 OVC250 M20/M23 A2980 RMK SC1CC3CS4 SLP092

EXPIRED METARs :
  • 221200Z 00000KT 15SM IC BKN019 BKN250 M22/M24 A2980 RMK SC6CC1 SLP095

TAF TAF CYVM
Valid from the 22 at 13:00 until the 23 at 01:00 UTC


221238Z 2213/2301 VRB03KT P6SM IC BKN020 BKN250
TEMPO 2213/2219 SCT020 BKN250
FM221900 02005KT P6SM SCT030 RMK NXT FCST BY 221900Z
CZEG FIR / North America



MET'MAP, your aeronautical weather chart ! - Copyright ORBIFLY December 2007 - Disclaimer

ORBIFLY MET'MAP TEAM :

Programming & Development : Alexandra Zaïnal
Concept & Development : Baudouin d'Aumeries
Co-Development & Prog : Marc-Olivier Méhu
Technical & hardware support : Manuel Goepfert

Contact : metmap@orbifly.com




SOURCES & CREDITS :

   NOAA